Íslenskir flugvellir

Veldu flugvelli í þeirri röð sem þeir eiga að birtast og styddu á hnappinn

Uppfært síðast 12.11.2019 - kl. 03:36

SIGMET síðustu 6 klst.

BIRD SIGMET B01 VALID 120230/120530 BIRK- BIRD REYKJAVIK CTA SEV MTW FCST WI N6750 W02940 - N6450 W03810 - N6540 W05310 - N6830 W05250 - N6750 W02940 FL280/390 STNR NC
BIRD SIGMET B09 VALID 112330/120230 BIRK- BIRD REYKJAVIK CTA SEV MTW FCST WI N6520 W03640 - N6410 W05150 - N6830 W05250 - N6830 W02640 - N6520 W03640 FL280/390 STNR NC

Egilsstaðir

METAR síðustu 3 klst

TímiSkeyti
2019-11-12 03.00METAR BIEG 120300Z 00000KT 9999 FEW020 SCT028 BKN045 02/M01 Q1009 R04/790194 RMK RWY SANDED. WIND GAGNHEIDI 10014KT
2019-11-12 02.00METAR BIEG 120200Z 00000KT 9999 FEW035 BKN056 02/M01 Q1008 R04/790194 RMK RWY SANDED. WIND GAGNHEIDI 11019KT
2019-11-12 01.00METAR BIEG 120100Z 07006KT 9999 FEW041 BKN052 02/M02 Q1008 R04/790194 RMK RWY SANDED. WIND GAGNHEIDI 10014KT

TAF

TAFBIEG2019-11-12 01.50Z120303VRB02KT 9999 FEW030 BKN045 TX01/1215Z TNM04/1221Z PROB40 TEMPO 1203/1218 5000 -SHSN BKN025 TEMPO 1218/1303 1200 SHSN BKN010 OVC020

Allur vindur er réttvísandi bæði í Metar og frá sjálfvirkum veðurstöðvum




Aðrir tengdir vefir



Þetta vefsvæði byggir á Eplica